createdAt,value
2023-05-19T00:00:15.367Z,11.33
2023-05-19T00:03:21.710Z,11.46
2023-05-19T00:06:27.578Z,11.67
2023-05-19T00:09:32.175Z,11.38
2023-05-19T00:12:37.336Z,11.75
2023-05-19T00:15:41.980Z,11.43
2023-05-19T00:18:47.581Z,11.76
2023-05-19T00:21:52.021Z,11.60
2023-05-19T00:24:56.543Z,11.36
2023-05-19T00:28:02.353Z,11.62
2023-05-19T00:31:06.953Z,11.77
2023-05-19T00:34:11.340Z,11.78
2023-05-19T00:37:16.026Z,11.74
2023-05-19T00:40:21.203Z,11.76
2023-05-19T00:43:26.098Z,11.19
2023-05-19T00:46:30.818Z,11.90
2023-05-19T00:49:35.610Z,11.49
2023-05-19T00:52:40.402Z,11.43
2023-05-19T00:55:45.044Z,11.36
2023-05-19T00:58:50.904Z,11.27
2023-05-19T01:01:55.763Z,11.33
2023-05-19T01:05:00.241Z,11.58
2023-05-19T01:08:05.792Z,11.22
2023-05-19T01:11:10.758Z,11.14
2023-05-19T01:14:15.788Z,11.20
2023-05-19T01:17:26.328Z,11.35
2023-05-19T01:20:38.510Z,10.94
2023-05-19T01:23:42.932Z,11.39
2023-05-19T01:26:53.445Z,11.25
2023-05-19T01:30:36.584Z,11.23
2023-05-19T01:33:42.173Z,11.38
2023-05-19T01:36:48.944Z,11.85
2023-05-19T01:39:55.664Z,11.14
2023-05-19T01:43:01.348Z,11.37
2023-05-19T01:46:06.631Z,11.16
2023-05-19T01:49:11.393Z,11.21
2023-05-19T01:52:15.823Z,11.14
2023-05-19T01:55:21.258Z,11.15
2023-05-19T01:58:34.976Z,11.34
2023-05-19T02:01:52.728Z,11.08
2023-05-19T02:05:01.827Z,11.29
2023-05-19T02:08:13.101Z,11.66
2023-05-19T02:11:50.102Z,11.44
2023-05-19T02:14:54.669Z,10.84
2023-05-19T02:18:00.325Z,10.82
2023-05-19T02:21:05.605Z,11.01
2023-05-19T02:24:10.036Z,10.72
2023-05-19T02:27:15.817Z,10.87
2023-05-19T02:30:20.672Z,10.85
2023-05-19T02:33:25.988Z,10.77
2023-05-19T02:36:32.106Z,11.06
2023-05-19T02:39:36.645Z,11.20
2023-05-19T02:42:41.062Z,10.84
2023-05-19T02:45:45.645Z,10.72
2023-05-19T02:48:50.894Z,10.94
2023-05-19T02:51:55.435Z,11.18
2023-05-19T02:54:59.832Z,10.94
2023-05-19T02:58:05.223Z,11.09
2023-05-19T03:01:10.044Z,11.21
2023-05-19T03:04:14.837Z,11.33
2023-05-19T03:07:24.898Z,11.66
2023-05-19T03:10:29.730Z,11.46
2023-05-19T03:13:34.923Z,10.73
2023-05-19T03:16:42.068Z,10.55
2023-05-19T03:19:46.896Z,10.63
2023-05-19T03:22:51.501Z,10.51
2023-05-19T03:25:56.687Z,10.77
2023-05-19T03:29:01.462Z,10.28
2023-05-19T03:32:07.876Z,10.13
2023-05-19T03:35:14.336Z,10.45
2023-05-19T03:38:18.968Z,10.37
2023-05-19T03:41:32.773Z,10.51
2023-05-19T03:44:38.240Z,10.93
2023-05-19T03:47:43.127Z,10.95
2023-05-19T03:51:16.681Z,11.14
2023-05-19T03:54:22.813Z,11.01
2023-05-19T03:57:29.367Z,11.19
2023-05-19T04:00:34.192Z,10.85
2023-05-19T04:03:38.961Z,10.92
2023-05-19T04:06:43.652Z,11.09
2023-05-19T04:09:49.502Z,11.03
2023-05-19T04:12:54.052Z,10.93
2023-05-19T04:15:58.871Z,10.47
2023-05-19T04:19:04.165Z,11.12
2023-05-19T04:22:08.648Z,11.32
2023-05-19T04:25:13.329Z,11.31
2023-05-19T04:28:18.219Z,11.21
2023-05-19T04:31:22.908Z,11.50
2023-05-19T04:34:29.002Z,11.12
2023-05-19T04:37:38.348Z,11.43
2023-05-19T04:40:44.720Z,11.43
2023-05-19T04:43:50.056Z,11.46
2023-05-19T04:46:58.212Z,11.33
2023-05-19T04:50:04.170Z,11.14
2023-05-19T04:53:09.881Z,11.23
2023-05-19T04:56:15.573Z,11.51
2023-05-19T04:59:22.135Z,11.77
2023-05-19T05:02:30.267Z,11.72
2023-05-19T05:05:35.434Z,12.36
2023-05-19T05:08:41.526Z,12.10
2023-05-19T05:11:46.875Z,12.71
2023-05-19T05:14:51.789Z,12.70
2023-05-19T05:17:57.897Z,12.57
2023-05-19T05:21:03.316Z,12.61
2023-05-19T05:24:09.122Z,12.23
2023-05-19T05:27:14.528Z,12.39
2023-05-19T05:30:19.316Z,12.55
2023-05-19T05:33:24.897Z,12.39
2023-05-19T05:36:31.508Z,12.85
2023-05-19T05:39:37.726Z,12.61
2023-05-19T05:42:43.543Z,12.53
2023-05-19T05:45:49.170Z,12.78
2023-05-19T05:48:54.250Z,12.80
2023-05-19T05:52:05.847Z,12.76
2023-05-19T05:55:17.612Z,13.02
2023-05-19T05:58:22.695Z,13.20
2023-05-19T06:01:28.140Z,13.03
2023-05-19T06:04:32.845Z,13.15
2023-05-19T06:07:37.663Z,12.98
2023-05-19T06:10:44.572Z,13.33
2023-05-19T06:13:51.344Z,13.49
2023-05-19T06:17:21.781Z,13.41
2023-05-19T06:20:26.333Z,13.45
2023-05-19T06:23:31.255Z,14.12
2023-05-19T06:26:35.988Z,14.09
2023-05-19T06:29:41.607Z,14.16
2023-05-19T06:32:47.195Z,13.98
2023-05-19T06:35:52.074Z,14.14
2023-05-19T06:38:59.239Z,14.41
2023-05-19T06:42:06.096Z,15.02
2023-05-19T06:45:33.820Z,14.84
2023-05-19T06:48:40.854Z,14.80
2023-05-19T06:51:46.075Z,15.19
2023-05-19T06:54:51.500Z,15.52
2023-05-19T06:57:56.441Z,15.66
2023-05-19T07:01:01.237Z,14.96
2023-05-19T07:04:11.794Z,15.32
2023-05-19T07:07:16.694Z,15.38
2023-05-19T07:10:21.976Z,15.30
2023-05-19T07:13:27.776Z,15.44
2023-05-19T07:16:33.693Z,15.31
2023-05-19T07:19:38.342Z,15.77
2023-05-19T07:22:42.924Z,16.05
2023-05-19T07:25:47.506Z,15.50
2023-05-19T07:28:52.463Z,15.82
2023-05-19T07:31:57.965Z,16.71
2023-05-19T07:35:03.031Z,16.40
2023-05-19T07:38:07.817Z,16.53
2023-05-19T07:41:12.944Z,17.27
2023-05-19T07:44:17.480Z,17.93
2023-05-19T07:47:22.103Z,16.66
2023-05-19T07:50:26.815Z,17.07
2023-05-19T07:53:31.837Z,17.05
2023-05-19T07:56:36.410Z,17.29
2023-05-19T07:59:41.102Z,17.27
2023-05-19T08:02:45.812Z,16.98
2023-05-19T08:05:50.507Z,16.68
2023-05-19T08:08:55.019Z,16.64
2023-05-19T08:12:01.417Z,17.09
2023-05-19T08:15:06.732Z,18.07
2023-05-19T08:18:11.297Z,17.54
2023-05-19T08:21:16.161Z,17.98
2023-05-19T08:24:20.817Z,17.31
2023-05-19T08:27:25.454Z,18.24
2023-05-19T08:30:30.004Z,18.01
2023-05-19T08:33:34.634Z,18.66
2023-05-19T08:36:40.804Z,17.87
2023-05-19T08:39:45.493Z,17.97
2023-05-19T08:42:50.212Z,19.44
2023-05-19T08:45:55.563Z,19.55
2023-05-19T08:49:05.410Z,19.51
2023-05-19T08:52:19.531Z,18.45
2023-05-19T08:55:59.950Z,19.08
2023-05-19T08:59:04.954Z,18.89
2023-05-19T09:02:12.929Z,20.66
2023-05-19T09:05:18.147Z,20.51
2023-05-19T09:08:22.723Z,21.21
2023-05-19T09:11:27.499Z,21.00
2023-05-19T09:14:33.006Z,19.52
2023-05-19T09:17:37.742Z,20.45
2023-05-19T09:20:44.476Z,19.81
2023-05-19T09:23:49.659Z,20.14
2023-05-19T09:26:57.999Z,21.11
2023-05-19T09:30:08.608Z,20.14
2023-05-19T09:33:19.395Z,20.66
2023-05-19T09:36:24.263Z,21.21
2023-05-19T09:39:29.819Z,20.66
2023-05-19T09:42:38.034Z,21.61
2023-05-19T09:45:42.763Z,22.26
2023-05-19T09:48:47.476Z,21.99
2023-05-19T09:51:59.624Z,22.41
2023-05-19T09:55:05.233Z,22.82
2023-05-19T09:58:12.072Z,22.48
2023-05-19T10:01:18.106Z,22.69
2023-05-19T10:04:24.285Z,22.38
2023-05-19T10:07:29.831Z,23.18
2023-05-19T10:10:34.717Z,23.44
2023-05-19T10:13:40.071Z,23.55
2023-05-19T10:16:45.839Z,23.34
2023-05-19T10:19:52.211Z,22.71
2023-05-19T10:22:56.893Z,22.45
2023-05-19T10:26:05.105Z,22.42
2023-05-19T10:29:11.297Z,21.93
2023-05-19T10:32:24.115Z,21.04
2023-05-19T10:35:37.099Z,21.42
2023-05-19T10:38:53.279Z,22.93
2023-05-19T10:42:10.718Z,23.45
2023-05-19T10:45:21.344Z,22.90
2023-05-19T10:48:26.099Z,24.19
2023-05-19T10:51:32.406Z,23.70
2023-05-19T10:54:41.036Z,23.34
2023-05-19T10:57:57.013Z,23.52
2023-05-19T11:01:01.730Z,23.74
2023-05-19T11:04:10.967Z,22.35
2023-05-19T11:07:20.181Z,23.27
2023-05-19T11:10:25.159Z,22.53
2023-05-19T11:13:29.725Z,23.78
2023-05-19T11:16:34.539Z,25.88
2023-05-19T11:19:41.902Z,25.27
2023-05-19T11:23:04.069Z,27.24
2023-05-19T11:26:09.164Z,26.11
2023-05-19T11:29:14.682Z,24.41
2023-05-19T11:32:21.730Z,24.57
2023-05-19T11:35:27.458Z,25.29
2023-05-19T11:38:32.894Z,26.42
2023-05-19T11:41:40.775Z,25.30
2023-05-19T11:44:46.230Z,25.67
2023-05-19T11:48:02.028Z,25.68
2023-05-19T11:51:07.926Z,25.03
2023-05-19T11:54:12.989Z,25.96
2023-05-19T11:57:18.008Z,25.72
2023-05-19T12:00:23.170Z,25.86
2023-05-19T12:03:28.809Z,25.74
2023-05-19T12:06:34.317Z,24.49
2023-05-19T12:09:39.513Z,24.02
2023-05-19T12:12:45.206Z,23.10
2023-05-19T12:15:51.964Z,22.31
2023-05-19T12:18:56.783Z,23.25
2023-05-19T12:22:03.421Z,22.76
2023-05-19T12:25:09.271Z,22.87
2023-05-19T12:28:16.040Z,21.73
2023-05-19T12:31:23.711Z,21.52
2023-05-19T12:34:28.549Z,21.32
2023-05-19T12:37:34.855Z,21.68
2023-05-19T12:40:39.555Z,21.80
2023-05-19T12:43:44.128Z,22.08
2023-05-19T12:46:52.048Z,21.74
2023-05-19T12:49:59.777Z,21.61
2023-05-19T12:53:08.809Z,21.04
2023-05-19T12:56:14.971Z,21.48
2023-05-19T12:59:37.221Z,21.10
2023-05-19T13:03:06.830Z,20.94
2023-05-19T13:06:11.988Z,21.20
2023-05-19T13:09:17.806Z,22.81
2023-05-19T13:12:22.457Z,22.79
2023-05-19T13:15:31.639Z,23.84
2023-05-19T13:18:37.573Z,24.27
2023-05-19T13:21:42.462Z,23.16
2023-05-19T13:24:47.133Z,25.37
2023-05-19T13:27:51.906Z,25.70
2023-05-19T13:30:56.981Z,24.47
2023-05-19T13:34:02.765Z,22.73
2023-05-19T13:37:10.089Z,24.40
2023-05-19T13:40:15.733Z,25.12
2023-05-19T13:43:20.533Z,26.59
2023-05-19T13:46:33.096Z,26.90
2023-05-19T13:49:48.410Z,25.67
2023-05-19T13:52:53.741Z,24.90
2023-05-19T13:56:00.435Z,24.35
2023-05-19T13:59:05.099Z,25.34
2023-05-19T14:02:09.985Z,24.81
2023-05-19T14:05:14.726Z,25.36
2023-05-19T14:08:19.390Z,25.37
2023-05-19T14:11:24.018Z,23.75
2023-05-19T14:14:28.587Z,23.58
2023-05-19T14:17:33.498Z,22.95
2023-05-19T14:20:38.203Z,23.05
2023-05-19T14:23:42.895Z,24.36
2023-05-19T14:26:47.760Z,23.46
2023-05-19T14:29:52.863Z,24.76
2023-05-19T14:32:58.300Z,24.90
2023-05-19T14:36:05.320Z,24.03
2023-05-19T14:39:09.962Z,24.68
2023-05-19T14:42:14.695Z,24.32
2023-05-19T14:45:19.513Z,24.56
2023-05-19T14:48:24.230Z,24.23
2023-05-19T14:51:28.946Z,23.88
2023-05-19T14:54:34.010Z,24.27
2023-05-19T14:57:38.707Z,23.82
2023-05-19T15:00:43.780Z,22.92
2023-05-19T15:03:48.386Z,23.19
2023-05-19T15:07:05.983Z,22.33
2023-05-19T15:10:16.762Z,21.57
2023-05-19T15:13:21.598Z,21.80
2023-05-19T15:16:26.281Z,21.65
2023-05-19T15:19:30.932Z,20.75
2023-05-19T15:22:35.484Z,20.81
2023-05-19T15:25:40.086Z,20.17
2023-05-19T15:28:44.768Z,20.32
2023-05-19T15:31:52.423Z,20.60
2023-05-19T15:34:56.975Z,20.38
2023-05-19T15:38:06.076Z,20.07
2023-05-19T15:41:11.016Z,20.27
2023-05-19T15:44:15.745Z,20.08
2023-05-19T15:47:20.651Z,20.20
2023-05-19T15:50:26.594Z,20.03
2023-05-19T15:53:31.206Z,19.72
2023-05-19T15:56:35.873Z,20.02
2023-05-19T15:59:40.542Z,19.90
2023-05-19T16:02:45.183Z,19.89
2023-05-19T16:05:50.015Z,19.92
2023-05-19T16:08:54.753Z,19.87
2023-05-19T16:11:59.421Z,19.58
2023-05-19T16:15:04.183Z,19.70
2023-05-19T16:18:09.036Z,20.00
2023-05-19T16:21:13.653Z,19.91
2023-05-19T16:24:18.299Z,19.51
2023-05-19T16:27:22.990Z,19.51
2023-05-19T16:30:28.029Z,19.48
2023-05-19T16:33:32.778Z,19.44
2023-05-19T16:36:37.438Z,19.15
2023-05-19T16:39:44.005Z,18.73
2023-05-19T16:42:48.709Z,19.05
2023-05-19T16:45:53.512Z,18.58
2023-05-19T16:48:58.376Z,18.77
2023-05-19T16:52:03.018Z,19.09
2023-05-19T16:55:08.043Z,18.03
2023-05-19T16:58:12.780Z,18.35
2023-05-19T17:01:17.497Z,18.24
2023-05-19T17:04:22.173Z,18.73
2023-05-19T17:07:29.045Z,18.78
2023-05-19T17:10:34.095Z,18.43
2023-05-19T17:13:39.431Z,18.32
2023-05-19T17:16:44.113Z,18.12
2023-05-19T17:19:48.706Z,18.35
2023-05-19T17:22:53.331Z,18.04
2023-05-19T17:25:57.973Z,17.50
2023-05-19T17:29:02.771Z,17.79
2023-05-19T17:32:07.568Z,18.07
2023-05-19T17:35:12.217Z,18.05
2023-05-19T17:38:18.220Z,17.96
2023-05-19T17:41:22.896Z,17.92
2023-05-19T17:44:27.691Z,17.73
2023-05-19T17:47:32.267Z,17.40
2023-05-19T17:50:36.841Z,17.26
2023-05-19T17:53:42.422Z,17.22
2023-05-19T17:56:48.206Z,17.28
2023-05-19T17:59:53.036Z,17.26
2023-05-19T18:02:59.229Z,17.53
2023-05-19T18:06:03.905Z,17.32
2023-05-19T18:09:09.257Z,17.52
2023-05-19T18:12:13.974Z,17.16
2023-05-19T18:15:18.520Z,17.29
2023-05-19T18:18:22.980Z,17.24
2023-05-19T18:21:27.963Z,17.01
2023-05-19T18:24:32.472Z,16.89
2023-05-19T18:27:37.061Z,17.07
2023-05-19T18:30:41.945Z,16.86
2023-05-19T18:33:47.306Z,16.92
2023-05-19T18:36:51.988Z,16.93
2023-05-19T18:39:56.806Z,16.23
2023-05-19T18:43:01.494Z,16.53
2023-05-19T18:46:06.275Z,16.09
2023-05-19T18:49:11.849Z,16.18
2023-05-19T18:52:16.683Z,16.23
2023-05-19T18:55:21.243Z,16.22
2023-05-19T18:58:25.897Z,15.80
2023-05-19T19:01:30.648Z,16.02
2023-05-19T19:04:35.363Z,16.09
2023-05-19T19:07:41.105Z,15.79
2023-05-19T19:10:45.793Z,15.49
2023-05-19T19:13:51.521Z,15.76
2023-05-19T19:16:56.499Z,15.48
2023-05-19T19:20:02.586Z,15.58
2023-05-19T19:23:07.266Z,15.25
2023-05-19T19:26:11.887Z,15.63
2023-05-19T19:29:18.090Z,15.40
2023-05-19T19:32:23.014Z,15.33
2023-05-19T19:35:27.475Z,15.07
2023-05-19T19:38:31.897Z,15.39
2023-05-19T19:41:36.651Z,15.18
2023-05-19T19:44:41.470Z,15.49
2023-05-19T19:47:46.288Z,15.38
2023-05-19T19:50:53.511Z,14.82
2023-05-19T19:53:58.427Z,15.21
2023-05-19T19:57:02.873Z,15.14
2023-05-19T20:00:08.344Z,14.60
2023-05-19T20:03:13.058Z,14.92
2023-05-19T20:06:17.641Z,14.86
2023-05-19T20:09:22.046Z,14.72
2023-05-19T20:12:26.661Z,14.45
2023-05-19T20:15:31.573Z,14.70
2023-05-19T20:18:36.165Z,14.56
2023-05-19T20:21:40.714Z,14.56
2023-05-19T20:24:45.342Z,14.67
2023-05-19T20:27:49.816Z,14.63
2023-05-19T20:30:54.416Z,14.87
2023-05-19T20:33:59.451Z,14.86
2023-05-19T20:37:05.936Z,14.21
2023-05-19T20:40:11.046Z,14.48
2023-05-19T20:43:15.745Z,14.79
2023-05-19T20:46:20.380Z,14.51
2023-05-19T20:49:24.825Z,14.71
2023-05-19T20:52:29.511Z,14.68
2023-05-19T20:55:35.993Z,14.41
2023-05-19T20:58:40.720Z,14.50
2023-05-19T21:01:45.712Z,14.62
2023-05-19T21:04:50.818Z,14.49
2023-05-19T21:07:55.522Z,14.45
2023-05-19T21:10:59.947Z,14.59
2023-05-19T21:14:04.585Z,14.71
2023-05-19T21:17:09.276Z,14.74
2023-05-19T21:20:13.823Z,14.55
2023-05-19T21:23:18.256Z,14.27
2023-05-19T21:26:23.053Z,14.49
2023-05-19T21:29:27.827Z,14.38
2023-05-19T21:32:32.515Z,14.36
2023-05-19T21:35:37.773Z,14.21
2023-05-19T21:38:42.340Z,14.24
2023-05-19T21:41:46.899Z,14.09
2023-05-19T21:44:51.536Z,13.96
2023-05-19T21:47:56.348Z,14.12
2023-05-19T21:51:00.794Z,14.11
2023-05-19T21:54:05.254Z,13.92
2023-05-19T21:57:11.202Z,14.28
2023-05-19T22:00:15.684Z,14.09
2023-05-19T22:03:20.906Z,13.74
2023-05-19T22:06:25.325Z,14.18
2023-05-19T22:09:29.770Z,13.99
2023-05-19T22:12:34.325Z,14.02
2023-05-19T22:15:39.367Z,14.10
2023-05-19T22:18:43.859Z,14.07
2023-05-19T22:21:49.240Z,13.71
2023-05-19T22:24:54.824Z,13.61
2023-05-19T22:28:01.069Z,13.84
2023-05-19T22:31:05.948Z,14.24
2023-05-19T22:34:12.659Z,13.88
2023-05-19T22:37:17.265Z,14.17
2023-05-19T22:40:21.696Z,13.84
2023-05-19T22:43:26.716Z,13.41
2023-05-19T22:46:31.209Z,13.77
2023-05-19T22:49:35.728Z,13.73
2023-05-19T22:52:40.152Z,14.11
2023-05-19T22:55:44.701Z,13.73
2023-05-19T22:58:49.137Z,13.88
2023-05-19T23:01:53.712Z,13.57
2023-05-19T23:04:58.086Z,13.58
2023-05-19T23:08:02.703Z,13.65
2023-05-19T23:11:07.634Z,13.37
2023-05-19T23:14:12.108Z,13.74
2023-05-19T23:17:16.585Z,13.68
2023-05-19T23:20:21.154Z,13.46
2023-05-19T23:23:27.121Z,13.61
2023-05-19T23:26:32.261Z,13.42
2023-05-19T23:29:36.717Z,13.50
2023-05-19T23:32:41.259Z,13.43
2023-05-19T23:35:46.177Z,13.51
2023-05-19T23:38:50.914Z,13.58
2023-05-19T23:41:56.194Z,13.64
2023-05-19T23:45:00.612Z,13.76
2023-05-19T23:48:05.479Z,13.58
2023-05-19T23:51:10.062Z,13.72
2023-05-19T23:54:14.682Z,13.53
2023-05-19T23:57:19.085Z,13.49
